Terminal Aerodrome Forecast
Issued by NWS

Home | Current Version | Previous Version | Text Only | Print | Product List | Glossary On
Versions: 1 2 3 4 5 6 7 8 9 10 11 12 13 14 15 16 17 18 19 20 21 22 23 24
000
FTUS42 KGSP 012100 AAA
TAFAND
TAF AMD
KAND 012107Z 0121/0218 05009G15KT P6SM VCTS SCT022 BKN050CB
      TEMPO 0121/0123 OVC022CB
     FM020300 09005KT P6SM BKN060
     FM020800 05004KT 5SM BR BKN018
     FM021300 06004KT P6SM BKN060
     FM021500 08003KT P6SM BKN060=

USA.gov is the U.S. government's official web portal to all federal, state and local government web resources and services.